Aérodrome :
LOGIN :

S'inscrire | Disclaimer

   EN    FR    IT 

 










Légende :    VFR   VFR Marginal   IFR   IFR Intensif   IFR Très Intensif
Visi : 
Plafond : 
>= 8 km
>= 3000ft
5 à 8 km
1000 à 3000 ft
1500m à 5 km
500 à 1000 ft
800 à 1500m
200 à 500 ft
< 800m
< 200 ft
Symboles :   Orages  Brouillard  Fortes neiges  Fortes précipitations  Vent > 20 kt
SIGMETs :   Divers  Orages  Givrage  Turbulence  Onde Orograph.  Cendres Volcan.






- Altitude de l'aérodrome : 2776 ft
- Code IATA : VLL


LEVD - Valladolid

DERNIER METAR :
  • 291230Z 14007KT 090V170 CAVOK 12/05 Q1016

METARs EXPIRÉS :
  • 291200Z 13007KT 090V160 CAVOK 11/06 Q1016
  • 291130Z 12006KT 080V170 CAVOK 10/05 Q1016
  • 291100Z 13006KT 090V170 CAVOK 09/05 Q1016
  • 291030Z 11005KT 080V150 CAVOK 09/05 Q1016
  • 291000Z 09005KT CAVOK 07/05 Q1016

TAF TAF LEVD
Valide du 29 à 09h jusqu'au 30 à 09h UTC


290800Z 2909/3009 VRB05KT 9999 FEW040 TX14/2915Z TN03/3006Z
PROB30
TEMPO 2909/2915 14010KT
PROB30
TEMPO 2909/2910 4000 BR



MET'MAP, la Météo Aéronautique d'un coup d'oeil ! - Copyright ORBIFLY Décembre 2007 - Disclaimer

ORBIFLY MET'MAP TEAM :

Programmation & Développement : Alexandra Zaïnal
Sur une idée originale de : Baudouin d'Aumeries
Assistance à la programmation : Marc-Olivier Méhu
Soutien technique & logistique : Manuel Goepfert

Contact : metmap@orbifly.com




SOURCES & CREDITS :

   NOAA